createdAt,value
2023-04-23T00:01:25.732Z,40.13
2023-04-23T00:03:54.557Z,38.95
2023-04-23T00:06:22.482Z,32.95
2023-04-23T00:08:52.332Z,30.58
2023-04-23T00:11:20.993Z,27.17
2023-04-23T00:13:49.478Z,29.30
2023-04-23T00:16:17.335Z,29.13
2023-04-23T00:18:44.670Z,33.55
2023-04-23T00:21:12.305Z,28.90
2023-04-23T00:23:39.908Z,26.90
2023-04-23T00:26:07.510Z,23.92
2023-04-23T00:28:34.804Z,21.70
2023-04-23T00:31:02.482Z,21.15
2023-04-23T00:33:29.848Z,21.25
2023-04-23T00:35:57.471Z,21.67
2023-04-23T00:38:26.364Z,27.42
2023-04-23T00:40:53.948Z,27.63
2023-04-23T00:43:21.356Z,33.70
2023-04-23T00:45:49.137Z,40.70
2023-04-23T00:48:16.941Z,28.95
2023-04-23T00:50:44.493Z,30.00
2023-04-23T00:53:11.818Z,33.47
2023-04-23T00:55:39.423Z,41.75
2023-04-23T00:58:06.949Z,26.70
2023-04-23T01:00:42.019Z,54.20
2023-04-23T01:03:10.561Z,34.33
2023-04-23T01:05:38.302Z,28.58
2023-04-23T01:08:05.712Z,25.02
2023-04-23T01:10:33.287Z,23.42
2023-04-23T01:13:00.718Z,21.65
2023-04-23T01:15:28.312Z,22.02
2023-04-23T01:17:57.263Z,21.52
2023-04-23T01:20:25.433Z,18.55
2023-04-23T01:22:53.237Z,23.27
2023-04-23T01:25:20.808Z,56.47
2023-04-23T01:27:48.159Z,48.13
2023-04-23T01:30:15.837Z,36.17
2023-04-23T01:32:43.829Z,34.47
2023-04-23T01:35:13.089Z,43.95
2023-04-23T01:37:40.832Z,69.72
2023-04-23T01:40:08.705Z,25.65
2023-04-23T01:42:35.995Z,26.48
2023-04-23T01:45:03.806Z,26.05
2023-04-23T01:47:31.138Z,26.08
2023-04-23T01:49:58.811Z,21.50
2023-04-23T01:52:26.163Z,22.13
2023-04-23T01:54:54.225Z,35.00
2023-04-23T01:57:24.243Z,60.83
2023-04-23T01:59:51.872Z,63.00
2023-04-23T02:02:19.837Z,41.08
2023-04-23T02:04:48.804Z,36.92
2023-04-23T02:07:16.283Z,33.88
2023-04-23T02:09:43.856Z,26.75
2023-04-23T02:12:11.163Z,28.23
2023-04-23T02:14:38.791Z,24.80
2023-04-23T02:17:06.370Z,24.15
2023-04-23T02:19:35.749Z,18.77
2023-04-23T02:22:03.251Z,17.92
2023-04-23T02:24:30.841Z,14.90
2023-04-23T02:26:58.891Z,13.88
2023-04-23T02:29:26.453Z,16.27
2023-04-23T02:31:53.831Z,18.55
2023-04-23T02:34:21.434Z,19.50
2023-04-23T02:36:48.752Z,20.98
2023-04-23T02:39:16.387Z,20.45
2023-04-23T02:41:43.687Z,25.02
2023-04-23T02:44:11.276Z,19.05
2023-04-23T02:46:38.966Z,16.42
2023-04-23T02:49:06.810Z,18.92
2023-04-23T02:51:34.107Z,34.22
2023-04-23T02:54:03.949Z,35.58
2023-04-23T02:56:31.221Z,27.83
2023-04-23T02:58:58.811Z,21.20
2023-04-23T03:01:26.277Z,28.58
2023-04-23T03:03:54.777Z,26.88
2023-04-23T03:06:22.267Z,21.33
2023-04-23T03:08:49.905Z,27.75
2023-04-23T03:11:17.271Z,23.65
2023-04-23T03:13:44.886Z,23.88
2023-04-23T03:16:12.243Z,20.95
2023-04-23T03:18:39.945Z,20.83
2023-04-23T03:21:07.266Z,20.77
2023-04-23T03:23:34.840Z,16.15
2023-04-23T03:26:02.113Z,13.27
2023-04-23T03:28:29.737Z,18.20
2023-04-23T03:30:57.015Z,21.42
2023-04-23T03:33:24.629Z,12.20
2023-04-23T03:35:51.881Z,16.13
2023-04-23T03:38:19.438Z,20.02
2023-04-23T03:40:46.694Z,22.90
2023-04-23T03:43:14.285Z,24.85
2023-04-23T03:45:41.602Z,21.70
2023-04-23T03:48:09.194Z,23.30
2023-04-23T03:50:40.377Z,27.02
2023-04-23T03:53:09.912Z,23.27
2023-04-23T03:55:37.233Z,22.13
2023-04-23T03:58:05.337Z,46.92
2023-04-23T04:00:32.627Z,50.15
2023-04-23T04:03:02.123Z,41.28
2023-04-23T04:05:29.844Z,43.50
2023-04-23T04:07:57.527Z,30.63
2023-04-23T04:10:24.834Z,42.47
2023-04-23T04:12:52.460Z,40.22
2023-04-23T04:15:20.931Z,31.60
2023-04-23T04:17:48.679Z,35.50
2023-04-23T04:20:17.179Z,21.40
2023-04-23T04:22:46.730Z,30.65
2023-04-23T04:25:14.124Z,25.38
2023-04-23T04:27:41.692Z,28.20
2023-04-23T04:30:09.774Z,36.90
2023-04-23T04:32:38.791Z,27.52
2023-04-23T04:35:06.508Z,19.23
2023-04-23T04:37:34.211Z,20.85
2023-04-23T04:40:02.614Z,26.42
2023-04-23T04:42:30.327Z,26.42
2023-04-23T04:44:59.492Z,27.92
2023-04-23T04:47:27.276Z,29.73
2023-04-23T04:49:57.403Z,27.33
2023-04-23T04:52:25.170Z,27.30
2023-04-23T04:54:52.463Z,26.08
2023-04-23T04:57:22.797Z,33.40
2023-04-23T04:59:50.934Z,33.28
2023-04-23T05:02:18.673Z,43.33
2023-04-23T05:04:46.048Z,29.85
2023-04-23T05:07:13.617Z,34.42
2023-04-23T05:09:43.003Z,27.20
2023-04-23T05:12:12.480Z,26.58
2023-04-23T05:14:40.237Z,26.05
2023-04-23T05:17:08.074Z,25.55
2023-04-23T05:19:35.359Z,18.75
2023-04-23T05:22:03.667Z,25.45
2023-04-23T05:24:31.037Z,24.80
2023-04-23T05:26:58.589Z,27.60
2023-04-23T05:29:25.997Z,19.48
2023-04-23T05:31:54.163Z,20.08
2023-04-23T05:34:21.574Z,19.63
2023-04-23T05:36:49.122Z,20.60
2023-04-23T05:39:16.469Z,21.13
2023-04-23T05:41:44.090Z,15.73
2023-04-23T05:44:11.375Z,19.35
2023-04-23T05:46:38.921Z,15.02
2023-04-23T05:49:06.528Z,18.85
2023-04-23T05:51:34.156Z,12.85
2023-04-23T05:54:01.411Z,13.45
2023-04-23T05:56:29.059Z,13.30
2023-04-23T05:58:56.405Z,11.85
2023-04-23T06:01:24.581Z,13.18
2023-04-23T06:03:52.357Z,17.67
2023-04-23T06:06:20.292Z,15.80
2023-04-23T06:08:47.640Z,13.07
2023-04-23T06:11:15.233Z,16.55
2023-04-23T06:13:43.915Z,19.25
2023-04-23T06:16:11.757Z,14.70
2023-04-23T06:18:39.263Z,17.90
2023-04-23T06:21:07.377Z,14.68
2023-04-23T06:23:35.384Z,17.15
2023-04-23T06:26:04.324Z,13.73
2023-04-23T06:28:31.600Z,14.07
2023-04-23T06:30:59.377Z,13.95
2023-04-23T06:33:26.714Z,12.80
2023-04-23T06:35:54.514Z,14.77
2023-04-23T06:38:23.006Z,13.20
2023-04-23T06:40:50.934Z,13.60
2023-04-23T06:43:18.303Z,11.45
2023-04-23T06:45:46.142Z,15.85
2023-04-23T06:48:13.515Z,13.77
2023-04-23T06:50:41.208Z,13.65
2023-04-23T06:53:08.698Z,11.77
2023-04-23T06:55:36.361Z,14.98
2023-04-23T06:58:03.717Z,9.30
2023-04-23T07:00:31.430Z,12.18
2023-04-23T07:02:58.828Z,9.77
2023-04-23T07:05:26.457Z,12.05
2023-04-23T07:07:53.758Z,17.77
2023-04-23T07:10:21.393Z,11.38
2023-04-23T07:12:48.838Z,10.20
2023-04-23T07:15:16.425Z,10.07
2023-04-23T07:17:43.804Z,10.07
2023-04-23T07:20:12.102Z,12.68
2023-04-23T07:22:39.397Z,12.45
2023-04-23T07:25:08.806Z,10.00
2023-04-23T07:27:36.358Z,11.70
2023-04-23T07:30:05.019Z,11.02
2023-04-23T07:32:32.383Z,14.55
2023-04-23T07:34:59.993Z,18.83
2023-04-23T07:37:27.341Z,12.63
2023-04-23T07:39:54.899Z,11.90
2023-04-23T07:42:22.238Z,14.23
2023-04-23T07:44:49.817Z,12.73
2023-04-23T07:47:17.214Z,15.43
2023-04-23T07:49:44.871Z,13.20
2023-04-23T07:52:12.247Z,12.95
2023-04-23T07:54:39.941Z,15.95
2023-04-23T07:57:07.254Z,11.05
2023-04-23T07:59:34.917Z,12.95
2023-04-23T08:02:02.173Z,13.32
2023-04-23T08:04:29.887Z,14.10
2023-04-23T08:06:57.330Z,15.35
2023-04-23T08:09:25.105Z,14.82
2023-04-23T08:11:52.546Z,12.18
2023-04-23T08:14:20.200Z,13.40
2023-04-23T08:16:47.546Z,13.23
2023-04-23T08:19:15.216Z,12.23
2023-04-23T08:21:42.583Z,19.13
2023-04-23T08:24:10.243Z,19.23
2023-04-23T08:26:37.556Z,13.77
2023-04-23T08:29:05.239Z,12.18
2023-04-23T08:31:37.573Z,13.82
2023-04-23T08:34:05.206Z,13.63
2023-04-23T08:36:32.708Z,12.07
2023-04-23T08:39:00.853Z,11.38
2023-04-23T08:41:31.357Z,14.48
2023-04-23T08:44:12.764Z,10.68
2023-04-23T08:46:43.141Z,10.48
2023-04-23T08:49:18.044Z,12.13
2023-04-23T08:51:48.184Z,12.00
2023-04-23T08:54:16.564Z,12.50
2023-04-23T08:56:44.876Z,22.25
2023-04-23T08:59:12.624Z,11.00
2023-04-23T09:01:40.129Z,12.70
2023-04-23T09:04:08.604Z,12.43
2023-04-23T09:06:35.926Z,11.32
2023-04-23T09:09:04.781Z,11.70
2023-04-23T09:11:32.243Z,10.55
2023-04-23T09:13:59.864Z,11.65
2023-04-23T09:16:27.539Z,14.38
2023-04-23T09:18:55.199Z,9.80
2023-04-23T09:21:22.556Z,13.48
2023-04-23T09:23:53.053Z,11.98
2023-04-23T09:26:22.133Z,10.25
2023-04-23T09:28:51.252Z,8.65
2023-04-23T09:31:24.976Z,11.32
2023-04-23T09:33:56.382Z,11.70
2023-04-23T09:36:24.223Z,10.05
2023-04-23T09:38:56.476Z,10.40
2023-04-23T09:41:25.357Z,9.50
2023-04-23T09:43:56.463Z,9.52
2023-04-23T09:46:37.079Z,9.82
2023-04-23T09:49:07.745Z,10.43
2023-04-23T09:51:39.383Z,9.77
2023-04-23T09:54:13.680Z,10.45
2023-04-23T09:56:44.214Z,10.05
2023-04-23T09:59:46.277Z,10.52
2023-04-23T10:02:13.085Z,13.20
2023-04-23T10:04:41.902Z,9.77
2023-04-23T10:07:19.506Z,17.70
2023-04-23T10:09:48.539Z,12.40
2023-04-23T10:14:49.297Z,8.23
2023-04-23T10:17:17.327Z,12.70
2023-04-23T10:19:45.450Z,8.65
2023-04-23T10:24:49.187Z,7.22
2023-04-23T10:27:30.654Z,9.63
2023-04-23T10:30:06.533Z,9.75
2023-04-23T10:32:34.667Z,15.90
2023-04-23T10:35:02.600Z,9.55
2023-04-23T10:37:30.277Z,7.75
2023-04-23T10:40:02.035Z,16.83
2023-04-23T10:42:29.912Z,6.77
2023-04-23T10:45:07.132Z,5.97
2023-04-23T10:47:37.752Z,7.90
2023-04-23T10:50:22.776Z,7.88
2023-04-23T10:52:54.175Z,9.05
2023-04-23T10:55:29.255Z,7.40
2023-04-23T10:58:00.849Z,9.55
2023-04-23T11:00:31.203Z,10.60
2023-04-23T11:02:58.770Z,11.20
2023-04-23T11:05:29.129Z,6.90
2023-04-23T11:08:18.917Z,10.13
2023-04-23T11:10:57.926Z,7.63
2023-04-23T11:13:26.160Z,8.02
2023-04-23T11:16:18.331Z,7.15
2023-04-23T11:19:03.394Z,11.18
2023-04-23T11:21:49.960Z,8.60
2023-04-23T11:24:17.272Z,5.47
2023-04-23T11:26:45.423Z,6.82
2023-04-23T11:29:15.547Z,5.53
2023-04-23T11:31:58.403Z,7.63
2023-04-23T11:34:29.733Z,5.57
2023-04-23T11:36:59.216Z,5.57
2023-04-23T11:39:27.314Z,9.02
2023-04-23T11:41:55.213Z,27.80
2023-04-23T11:44:22.633Z,5.13
2023-04-23T11:46:50.734Z,5.47
2023-04-23T11:49:18.301Z,8.02
2023-04-23T11:51:46.709Z,7.53
2023-04-23T11:54:14.691Z,8.55
2023-04-23T11:56:43.549Z,7.30
2023-04-23T11:59:11.009Z,5.35
2023-04-23T12:01:46.324Z,8.18
2023-04-23T12:04:14.633Z,7.00
2023-04-23T12:06:43.108Z,8.43
2023-04-23T12:09:11.954Z,5.03
2023-04-23T12:11:40.578Z,5.90
2023-04-23T12:14:08.810Z,7.43
2023-04-23T12:16:47.001Z,4.47
2023-04-23T12:19:15.464Z,4.43
2023-04-23T12:21:56.297Z,5.38
2023-04-23T12:24:24.533Z,8.15
2023-04-23T12:26:56.340Z,6.57
2023-04-23T12:29:23.886Z,11.40
2023-04-23T12:31:52.464Z,7.72
2023-04-23T12:34:22.880Z,10.00
2023-04-23T12:36:55.049Z,6.38
2023-04-23T12:39:22.304Z,9.85
2023-04-23T12:41:52.000Z,11.77
2023-04-23T12:44:19.429Z,4.65
2023-04-23T12:46:50.318Z,6.30
2023-04-23T12:49:17.754Z,7.90
2023-04-23T12:51:45.659Z,6.78
2023-04-23T12:54:13.090Z,6.72
2023-04-23T12:56:40.693Z,8.77
2023-04-23T12:59:08.302Z,10.10
2023-04-23T13:01:36.066Z,5.88
2023-04-23T13:04:03.525Z,5.85
2023-04-23T13:06:31.205Z,5.60
2023-04-23T13:09:00.614Z,9.23
2023-04-23T13:11:28.345Z,8.63
2023-04-23T13:13:55.655Z,6.50
2023-04-23T13:16:23.552Z,10.90
2023-04-23T13:18:52.294Z,9.10
2023-04-23T13:21:20.048Z,7.93
2023-04-23T13:23:47.357Z,5.78
2023-04-23T13:26:15.105Z,5.50
2023-04-23T13:28:42.561Z,20.70
2023-04-23T13:31:11.970Z,11.63
2023-04-23T13:33:39.452Z,5.30
2023-04-23T13:36:07.365Z,10.82
2023-04-23T13:38:35.081Z,3.90
2023-04-23T13:41:02.974Z,9.43
2023-04-23T13:43:30.273Z,7.22
2023-04-23T13:45:58.045Z,9.68
2023-04-23T13:48:28.714Z,7.97
2023-04-23T13:50:56.621Z,6.15
2023-04-23T13:53:23.896Z,6.90
2023-04-23T13:55:51.460Z,6.13
2023-04-23T13:58:18.843Z,12.05
2023-04-23T14:00:46.450Z,10.35
2023-04-23T14:03:13.986Z,4.93
2023-04-23T14:05:41.908Z,10.68
2023-04-23T14:08:09.422Z,6.82
2023-04-23T14:10:37.041Z,7.60
2023-04-23T14:13:04.791Z,7.82
2023-04-23T14:15:32.409Z,11.50
2023-04-23T14:17:59.916Z,6.07
2023-04-23T14:20:27.581Z,4.20
2023-04-23T14:23:02.574Z,6.55
2023-04-23T14:25:31.936Z,7.75
2023-04-23T14:28:03.447Z,7.90
2023-04-23T14:30:31.517Z,9.30
2023-04-23T14:32:58.842Z,9.93
2023-04-23T14:35:39.558Z,6.22
2023-04-23T14:38:10.496Z,7.72
2023-04-23T14:40:38.098Z,8.00
2023-04-23T14:43:14.956Z,3.45
2023-04-23T14:45:42.925Z,5.75
2023-04-23T14:48:10.509Z,11.57
2023-04-23T14:50:38.513Z,5.70
2023-04-23T14:53:07.792Z,3.72
2023-04-23T14:55:35.651Z,6.07
2023-04-23T14:58:02.975Z,11.90
2023-04-23T15:00:30.694Z,7.40
2023-04-23T15:02:58.184Z,9.80
2023-04-23T15:05:26.004Z,6.20
2023-04-23T15:07:53.337Z,5.85
2023-04-23T15:10:23.256Z,5.50
2023-04-23T15:12:50.824Z,11.85
2023-04-23T15:15:30.585Z,13.88
2023-04-23T15:18:00.990Z,7.07
2023-04-23T15:20:28.595Z,9.00
2023-04-23T15:22:55.925Z,6.85
2023-04-23T15:25:24.471Z,6.53
2023-04-23T15:27:57.703Z,7.53
2023-04-23T15:30:26.158Z,6.35
2023-04-23T15:32:55.398Z,8.40
2023-04-23T15:35:23.490Z,5.32
2023-04-23T15:37:50.913Z,5.05
2023-04-23T15:40:18.876Z,6.68
2023-04-23T15:42:46.346Z,4.82
2023-04-23T15:45:13.971Z,6.72
2023-04-23T15:47:42.191Z,6.93
2023-04-23T15:50:10.840Z,6.28
2023-04-23T15:52:38.467Z,5.97
2023-04-23T15:55:06.630Z,6.40
2023-04-23T15:57:33.945Z,13.75
2023-04-23T16:00:01.637Z,13.38
2023-04-23T16:02:29.167Z,8.43
2023-04-23T16:04:56.883Z,5.60
2023-04-23T16:07:24.257Z,13.25
2023-04-23T16:09:51.852Z,10.27
2023-04-23T16:12:19.153Z,14.50
2023-04-23T16:14:46.851Z,9.65
2023-04-23T16:17:14.194Z,4.75
2023-04-23T16:19:42.090Z,11.45
2023-04-23T16:22:09.752Z,10.13
2023-04-23T16:24:37.311Z,5.00
2023-04-23T16:27:06.635Z,7.32
2023-04-23T16:29:34.258Z,7.47
2023-04-23T16:32:01.551Z,9.63
2023-04-23T16:34:29.098Z,6.55
2023-04-23T16:36:56.534Z,6.88
2023-04-23T16:39:24.837Z,8.95
2023-04-23T16:41:52.138Z,6.85
2023-04-23T16:44:19.775Z,7.60
2023-04-23T16:46:47.143Z,11.32
2023-04-23T16:49:14.761Z,5.90
2023-04-23T16:51:42.041Z,9.38
2023-04-23T16:54:09.851Z,6.85
2023-04-23T16:56:37.371Z,7.35
2023-04-23T16:59:05.389Z,24.05
2023-04-23T17:01:32.702Z,6.45
2023-04-23T17:04:00.384Z,8.30
2023-04-23T17:06:29.993Z,15.80
2023-04-23T17:08:58.867Z,5.43
2023-04-23T17:11:26.840Z,4.07
2023-04-23T17:13:55.430Z,8.75
2023-04-23T17:16:22.858Z,4.00
2023-04-23T17:18:50.499Z,8.23
2023-04-23T17:21:17.825Z,3.83
2023-04-23T17:23:45.967Z,10.05
2023-04-23T17:26:13.646Z,8.50
2023-04-23T17:28:41.391Z,4.22
2023-04-23T17:31:09.135Z,8.55
2023-04-23T17:33:36.831Z,10.73
2023-04-23T17:36:04.804Z,15.00
2023-04-23T17:38:32.619Z,11.68
2023-04-23T17:41:00.016Z,5.90
2023-04-23T17:43:27.715Z,12.77
2023-04-23T17:45:55.203Z,13.75
2023-04-23T17:48:23.427Z,5.95
2023-04-23T17:50:50.827Z,14.63
2023-04-23T17:53:18.783Z,7.75
2023-04-23T17:55:46.293Z,10.35
2023-04-23T17:58:13.888Z,10.10
2023-04-23T18:00:45.390Z,9.80
2023-04-23T18:03:16.787Z,9.25
2023-04-23T18:05:45.085Z,14.43
2023-04-23T18:08:13.052Z,12.27
2023-04-23T18:10:40.495Z,11.77
2023-04-23T18:13:11.431Z,8.15
2023-04-23T18:15:40.930Z,7.95
2023-04-23T18:18:08.648Z,13.45
2023-04-23T18:20:38.927Z,9.25
2023-04-23T18:23:07.270Z,9.57
2023-04-23T18:25:34.624Z,14.05
2023-04-23T18:28:02.449Z,16.55
2023-04-23T18:30:29.929Z,9.52
2023-04-23T18:33:03.602Z,8.82
2023-04-23T18:35:30.980Z,11.48
2023-04-23T18:38:06.710Z,19.40
2023-04-23T18:40:34.899Z,26.67
2023-04-23T18:43:02.631Z,39.17
2023-04-23T18:45:30.026Z,37.47
2023-04-23T18:48:01.714Z,42.53
2023-04-23T18:50:42.935Z,23.52
2023-04-23T18:53:10.804Z,10.63
2023-04-23T18:55:38.099Z,12.43
2023-04-23T18:58:05.783Z,10.77
2023-04-23T19:00:33.177Z,16.42
2023-04-23T19:03:06.458Z,35.22
2023-04-23T19:05:36.649Z,18.30
2023-04-23T19:08:04.485Z,20.33
2023-04-23T19:10:31.753Z,18.85
2023-04-23T19:12:59.327Z,28.15
2023-04-23T19:15:26.643Z,22.20
2023-04-23T19:17:54.218Z,19.52
2023-04-23T19:20:21.544Z,22.73
2023-04-23T19:22:49.125Z,18.73
2023-04-23T19:25:17.435Z,22.17
2023-04-23T19:27:45.063Z,17.58
2023-04-23T19:30:12.485Z,15.80
2023-04-23T19:32:40.093Z,17.75
2023-04-23T19:35:07.703Z,18.10
2023-04-23T19:37:36.910Z,33.30
2023-04-23T19:40:04.921Z,22.10
2023-04-23T19:42:32.582Z,55.10
2023-04-23T19:44:59.850Z,46.60
2023-04-23T19:47:27.536Z,57.25
2023-04-23T19:49:54.833Z,48.25
2023-04-23T19:52:23.512Z,35.85
2023-04-23T19:54:51.069Z,23.10
2023-04-23T19:57:19.304Z,20.23
2023-04-23T19:59:47.045Z,23.08
2023-04-23T20:02:15.394Z,21.23
2023-04-23T20:04:42.966Z,23.48
2023-04-23T20:07:10.708Z,20.90
2023-04-23T20:09:38.248Z,16.45
2023-04-23T20:12:06.144Z,22.10
2023-04-23T20:14:33.443Z,59.15
2023-04-23T20:17:01.184Z,36.35
2023-04-23T20:19:30.689Z,30.65
2023-04-23T20:21:58.254Z,26.45
2023-04-23T20:24:25.676Z,28.98
2023-04-23T20:26:53.269Z,16.70
2023-04-23T20:29:20.559Z,21.55
2023-04-23T20:31:49.606Z,16.05
2023-04-23T20:34:17.461Z,12.30
2023-04-23T20:36:47.155Z,17.63
2023-04-23T20:39:15.367Z,20.30
2023-04-23T20:41:43.273Z,18.35
2023-04-23T20:44:11.984Z,15.77
2023-04-23T20:46:40.141Z,15.57
2023-04-23T20:49:07.444Z,15.32
2023-04-23T20:51:35.144Z,14.02
2023-04-23T20:54:02.873Z,14.02
2023-04-23T20:56:31.313Z,15.48
2023-04-23T20:58:58.918Z,13.48
2023-04-23T21:01:26.929Z,13.77
2023-04-23T21:03:54.753Z,13.18
2023-04-23T21:06:22.837Z,13.27
2023-04-23T21:08:50.094Z,21.38
2023-04-23T21:11:19.114Z,18.75
2023-04-23T21:13:46.840Z,18.17
2023-04-23T21:16:15.201Z,17.20
2023-04-23T21:18:43.718Z,17.35
2023-04-23T21:21:11.449Z,17.95
2023-04-23T21:23:38.764Z,15.73
2023-04-23T21:26:07.459Z,16.67
2023-04-23T21:28:34.732Z,18.33
2023-04-23T21:31:11.374Z,20.73
2023-04-23T21:33:38.734Z,14.98
2023-04-23T21:36:06.409Z,17.33
2023-04-23T21:38:33.683Z,15.82
2023-04-23T21:41:02.199Z,16.92
2023-04-23T21:43:31.401Z,15.77
2023-04-23T21:45:58.997Z,15.30
2023-04-23T21:48:26.282Z,16.20
2023-04-23T21:50:53.853Z,14.25
2023-04-23T21:53:22.501Z,17.10
2023-04-23T21:55:50.312Z,16.52
2023-04-23T21:58:18.133Z,17.25
2023-04-23T22:00:47.776Z,15.48
2023-04-23T22:03:17.780Z,18.00
2023-04-23T22:05:52.533Z,16.25
2023-04-23T22:08:19.901Z,20.35
2023-04-23T22:10:47.475Z,18.20
2023-04-23T22:13:15.026Z,14.10
2023-04-23T22:15:42.823Z,18.95
2023-04-23T22:18:10.210Z,19.20
2023-04-23T22:20:39.087Z,18.20
2023-04-23T22:23:06.429Z,14.20
2023-04-23T22:25:34.061Z,19.00
2023-04-23T22:28:02.669Z,16.15
2023-04-23T22:30:30.608Z,21.83
2023-04-23T22:32:57.968Z,15.98
2023-04-23T22:35:25.931Z,17.70
2023-04-23T22:37:53.283Z,18.25
2023-04-23T22:40:20.945Z,21.05
2023-04-23T22:42:48.227Z,20.25
2023-04-23T22:45:16.124Z,18.92
2023-04-23T22:47:43.599Z,18.83
2023-04-23T22:50:11.744Z,16.98
2023-04-23T22:52:39.029Z,16.77
2023-04-23T22:55:07.403Z,15.68
2023-04-23T22:57:35.265Z,18.05
2023-04-23T23:00:04.643Z,16.33
2023-04-23T23:02:32.011Z,18.52
2023-04-23T23:04:59.971Z,20.90
2023-04-23T23:07:27.277Z,16.45
2023-04-23T23:09:54.871Z,15.93
2023-04-23T23:12:22.401Z,14.82
2023-04-23T23:14:50.272Z,15.05
2023-04-23T23:17:17.602Z,22.52
2023-04-23T23:19:45.383Z,19.83
2023-04-23T23:22:12.855Z,19.17
2023-04-23T23:24:40.501Z,22.13
2023-04-23T23:27:07.797Z,24.95
2023-04-23T23:29:35.436Z,24.27
2023-04-23T23:32:02.781Z,26.25
2023-04-23T23:34:30.721Z,23.58
2023-04-23T23:36:58.020Z,24.58
2023-04-23T23:39:27.306Z,23.88
2023-04-23T23:41:54.622Z,23.63
2023-04-23T23:44:22.450Z,22.10
2023-04-23T23:46:49.818Z,22.25
2023-04-23T23:49:17.406Z,25.95
2023-04-23T23:51:44.805Z,22.35
2023-04-23T23:54:12.395Z,28.50
2023-04-23T23:56:39.703Z,19.92
2023-04-23T23:59:07.252Z,18.63
